Time;durP1;ratioP1;P1;durP2;ratioP2;P2;SDS_P1;SDS_P2;PMS_P1;PMS_P2;Temp;Humidity;BMP_temperature;BMP_pressure;BME280_temperature;BME280_humidity;BME280_pressure;Samples;Min_cycle;Max_cycle;Signal;HPM_P1;HPM_P2
2021/05/01 00:04:04;;;;;;;15.25;9.25;;;8.90;96.10;;;;;;10405374;28;20060;-59
2021/05/01 00:09:06;;;;;;;14.93;10.00;;;8.90;95.90;;;;;;10407486;28;20041;-59
2021/05/01 00:14:07;;;;;;;14.38;8.88;;;8.90;96.80;;;;;;10406579;28;20091;-60
2021/05/01 00:19:09;;;;;;;17.65;9.65;;;8.90;96.80;;;;;;10413222;28;20099;-60
2021/05/01 00:24:10;;;;;;;16.50;10.57;;;8.80;97.60;;;;;;10409590;28;20064;-60
2021/05/01 00:29:11;;;;;;;17.10;10.68;;;8.80;97.70;;;;;;10409710;28;20503;-59
2021/05/01 00:34:13;;;;;;;17.35;11.20;;;8.70;97.30;;;;;;10413147;28;20109;-59
2021/05/01 00:39:15;;;;;;;18.08;10.75;;;8.60;97.80;;;;;;10410772;28;20110;-59
2021/05/01 00:44:17;;;;;;;21.35;10.65;;;8.50;98.00;;;;;;10409657;28;20550;-60
2021/05/01 00:49:19;;;;;;;26.58;13.52;;;8.40;99.00;;;;;;10406456;28;20514;-59
2021/05/01 00:54:20;;;;;;;23.30;13.02;;;8.20;99.70;;;;;;10406576;28;20057;-60
2021/05/01 00:59:21;;;;;;;20.52;12.55;;;8.20;99.90;;;;;;10410005;28;20076;-60
2021/05/01 01:04:22;;;;;;;22.75;12.15;;;8.20;99.90;;;;;;10405361;28;20107;-59
2021/05/01 01:09:24;;;;;;;22.90;14.10;;;8.20;99.90;;;;;;10400415;28;20064;-59
2021/05/01 01:14:28;;;;;;;25.60;12.63;;;8.30;99.90;;;;;;10405590;28;20115;-59
2021/05/01 01:19:29;;;;;;;20.98;12.45;;;8.20;99.90;;;;;;10408089;28;20045;-59
2021/05/01 01:24:30;;;;;;;21.75;12.70;;;8.20;99.90;;;;;;10405958;28;20045;-59
2021/05/01 01:29:32;;;;;;;24.80;14.02;;;8.10;99.90;;;;;;10407938;28;20055;-59
2021/05/01 01:34:39;;;;;;;23.67;13.48;;;8.00;99.90;;;;;;10406977;28;20061;-59
2021/05/01 01:39:41;;;;;;;26.42;14.80;;;8.00;99.90;;;;;;10403631;28;20446;-60
2021/05/01 01:44:45;;;;;;;27.88;14.57;;;7.80;99.90;;;;;;10403668;28;20053;-59
2021/05/01 01:49:46;;;;;;;22.42;12.65;;;7.70;99.90;;;;;;10403825;28;20064;-60
2021/05/01 01:54:47;;;;;;;23.70;12.80;;;7.70;99.90;;;;;;10400073;28;20182;-59
2021/05/01 01:59:48;;;;;;;23.75;13.88;;;7.60;99.90;;;;;;10406660;28;20589;-60
2021/05/01 02:04:49;;;;;;;27.52;16.45;;;7.50;99.90;;;;;;10142345;28;20061;-60
2021/05/01 02:09:51;;;;;;;20.98;14.90;;;7.30;99.90;;;;;;10096027;28;20049;-60
2021/05/01 02:14:52;;;;;;;26.23;15.55;;;7.20;99.90;;;;;;10087528;28;20452;-59
2021/05/01 02:19:54;;;;;;;30.55;16.60;;;7.10;99.90;;;;;;10104699;28;20132;-59
2021/05/01 02:24:55;;;;;;;24.23;16.48;;;7.10;99.90;;;;;;10102446;28;20139;-59
2021/05/01 02:29:56;;;;;;;27.23;15.88;;;7.00;99.90;;;;;;10097673;28;20065;-59
2021/05/01 02:34:58;;;;;;;26.73;16.75;;;6.90;99.90;;;;;;10106106;28;20049;-60
2021/05/01 02:39:59;;;;;;;35.67;18.45;;;6.70;99.90;;;;;;10100656;28;20429;-60
2021/05/01 02:45:00;;;;;;;27.77;17.60;;;6.60;99.90;;;;;;10092996;28;20084;-59
2021/05/01 02:50:04;;;;;;;25.00;16.27;;;6.50;99.90;;;;;;10094189;28;20187;-59
2021/05/01 02:55:07;;;;;;;29.30;17.30;;;6.50;99.90;;;;;;10093750;28;20048;-59
2021/05/01 03:00:14;;;;;;;23.83;16.38;;;;;;;;;;10089285;28;20050;-59
2021/05/01 03:05:16;;;;;;;22.70;15.00;;;6.20;99.90;;;;;;10085499;28;20491;-59
2021/05/01 03:10:23;;;;;;;21.33;13.98;;;6.00;99.90;;;;;;10085748;28;20065;-59
2021/05/01 03:15:25;;;;;;;18.88;14.73;;;5.90;99.90;;;;;;10087570;28;20047;-59
2021/05/01 03:20:26;;;;;;;18.35;13.23;;;5.80;99.90;;;;;;10078640;28;20055;-59
2021/05/01 03:25:28;;;;;;;17.48;12.85;;;5.90;99.90;;;;;;10088047;28;20060;-59
2021/05/01 03:30:29;;;;;;;14.68;10.85;;;5.70;99.90;;;;;;10092617;28;20045;-59
2021/05/01 03:35:30;;;;;;;10.55;6.72;;;5.50;99.90;;;;;;10108412;28;20184;-59
2021/05/01 03:40:31;;;;;;;14.98;8.20;;;5.50;99.90;;;;;;10405287;28;20541;-59
2021/05/01 03:45:33;;;;;;;21.05;10.68;;;5.60;99.90;;;;;;10411010;28;20092;-59
2021/05/01 03:50:34;;;;;;;16.48;7.60;;;5.60;99.90;;;;;;10408612;28;20427;-59
2021/05/01 03:55:35;;;;;;;13.30;7.43;;;5.60;99.90;;;;;;10406917;28;20074;-58
2021/05/01 04:00:37;;;;;;;14.73;7.88;;;5.60;99.90;;;;;;10403806;28;20499;-59
2021/05/01 04:05:38;;;;;;;15.80;8.40;;;5.60;99.90;;;;;;10410981;28;20056;-60
2021/05/01 04:10:39;;;;;;;17.02;9.30;;;5.70;99.90;;;;;;10403713;28;20353;-59
2021/05/01 04:15:40;;;;;;;18.52;9.27;;;5.60;99.90;;;;;;10410024;28;20049;-59
2021/05/01 04:20:41;;;;;;;15.10;8.68;;;5.60;99.90;;;;;;10407395;28;20045;-61
2021/05/01 04:25:43;;;;;;;18.40;10.02;;;5.60;99.90;;;;;;10406651;28;20060;-58
2021/05/01 04:30:44;;;;;;;19.08;10.77;;;5.50;99.90;;;;;;10409186;28;20075;-58
2021/05/01 04:35:45;;;;;;;23.05;13.07;;;5.50;99.90;;;;;;10409977;28;20052;-60
2021/05/01 04:40:47;;;;;;;20.20;11.32;;;5.50;99.90;;;;;;10402084;28;20053;-58
2021/05/01 04:45:48;;;;;;;20.10;11.23;;;5.50;99.90;;;;;;10410641;28;20056;-58
2021/05/01 04:50:50;;;;;;;25.25;12.13;;;5.50;99.90;;;;;;10405771;28;20049;-60
2021/05/01 04:55:52;;;;;;;21.83;11.30;;;5.40;99.90;;;;;;10406833;28;20146;-59
2021/05/01 05:00:58;;;;;;;17.48;9.30;;;5.50;99.90;;;;;;10405220;28;20056;-59
2021/05/01 05:05:59;;;;;;;15.52;9.77;;;5.60;99.90;;;;;;10411442;28;20107;-59
2021/05/01 05:11:00;;;;;;;19.38;9.93;;;5.60;99.90;;;;;;10411290;28;20051;-58
2021/05/01 05:16:01;;;;;;;20.70;10.70;;;5.60;99.90;;;;;;10409048;28;20103;-58
2021/05/01 05:21:03;;;;;;;19.92;8.70;;;5.70;99.90;;;;;;10407606;28;20445;-58
2021/05/01 05:26:04;;;;;;;20.55;8.60;;;5.60;99.90;;;;;;10402900;28;20511;-58
2021/05/01 05:31:05;;;;;;;15.85;8.32;;;5.70;99.90;;;;;;10407731;28;20111;-59
2021/05/01 05:36:06;;;;;;;16.05;8.70;;;5.70;99.90;;;;;;10408395;28;20045;-58
2021/05/01 05:41:07;;;;;;;18.83;9.23;;;5.80;99.90;;;;;;10405567;28;20053;-59
2021/05/01 05:46:13;;;;;;;17.58;9.68;;;5.90;99.90;;;;;;10406807;28;20041;-60
2021/05/01 05:51:14;;;;;;;18.90;9.70;;;6.00;99.90;;;;;;10401605;28;20037;-58
2021/05/01 05:56:18;;;;;;;17.88;9.85;;;6.00;99.90;;;;;;10406265;28;20491;-58
2021/05/01 06:01:25;;;;;;;16.15;9.68;;;6.20;99.90;;;;;;10398591;28;20048;-60
2021/05/01 06:06:30;;;;;;;18.55;10.70;;;6.30;99.90;;;;;;10407460;28;20048;-58
2021/05/01 06:11:31;;;;;;;21.90;11.18;;;6.40;99.90;;;;;;10403160;28;20534;-60
2021/05/01 06:16:36;;;;;;;18.25;10.65;;;6.50;99.90;;;;;;10405906;28;20502;-60
2021/05/01 06:21:38;;;;;;;22.33;10.95;;;6.60;99.90;;;;;;10404749;28;20053;-60
2021/05/01 06:26:40;;;;;;;18.90;12.13;;;6.70;99.90;;;;;;10409437;28;20048;-60
2021/05/01 06:31:41;;;;;;;31.70;15.05;;;6.90;99.90;;;;;;10402215;28;20049;-59
2021/05/01 06:36:43;;;;;;;27.70;16.60;;;7.10;99.90;;;;;;10401902;28;20088;-60
2021/05/01 06:41:58;;;;;;;30.65;17.60;;;7.40;99.90;;;;;;10408459;28;20045;-58
2021/05/01 06:46:59;;;;;;;31.08;16.77;;;7.50;99.90;;;;;;10414053;28;20056;-60
2021/05/01 06:52:04;;;;;;;28.73;15.90;;;8.00;99.90;;;;;;10415723;28;20099;-60
2021/05/01 06:57:05;;;;;;;28.52;15.68;;;8.30;99.90;;;;;;10413332;28;20076;-59
2021/05/01 07:02:09;;;;;;;28.73;15.48;;;8.50;99.90;;;;;;10409844;28;20060;-59
2021/05/01 07:07:21;;;;;;;25.10;14.13;;;8.70;99.90;;;;;;10416136;28;20999;-59
2021/05/01 07:12:25;;;;;;;23.80;14.75;;;8.90;99.90;;;;;;10413637;28;21454;-59
2021/05/01 07:17:27;;;;;;;21.77;12.45;;;8.60;99.90;;;;;;10412582;28;20041;-59
2021/05/01 07:22:29;;;;;;;23.25;11.77;;;8.60;99.90;;;;;;10409903;28;20073;-59
2021/05/01 07:27:32;;;;;;;17.63;10.93;;;9.10;99.90;;;;;;10413860;28;20049;-59
2021/05/01 07:32:35;;;;;;;19.00;10.85;;;9.30;99.90;;;;;;10417208;28;20049;-59
2021/05/01 07:37:38;;;;;;;18.00;11.05;;;9.70;99.90;;;;;;10407747;28;20044;-59
2021/05/01 07:42:45;;;;;;;14.88;9.90;;;10.10;99.90;;;;;;10408418;28;20141;-59
2021/05/01 07:47:49;;;;;;;16.58;10.02;;;10.40;99.90;;;;;;10412896;28;20111;-60
2021/05/01 07:52:55;;;;;;;17.92;11.27;;;10.60;96.50;;;;;;10408244;28;20139;-60
2021/05/01 07:57:57;;;;;;;22.75;11.77;;;10.90;95.20;;;;;;10411372;28;20126;-59
2021/05/01 08:03:00;;;;;;;18.42;10.77;;;11.20;94.00;;;;;;10417152;28;20387;-59
2021/05/01 08:08:01;;;;;;;21.08;13.18;;;11.60;94.00;;;;;;10412949;28;20399;-59
2021/05/01 08:13:02;;;;;;;23.42;12.68;;;12.00;92.60;;;;;;10416605;28;20049;-59
2021/05/01 08:18:06;;;;;;;23.15;13.70;;;12.30;92.50;;;;;;10412208;28;20057;-59
2021/05/01 08:23:07;;;;;;;20.05;13.38;;;12.30;92.70;;;;;;10413265;28;20044;-59
2021/05/01 08:28:09;;;;;;;24.58;14.68;;;12.70;90.50;;;;;;10408656;28;20052;-60
2021/05/01 08:33:10;;;;;;;21.92;14.05;;;13.00;90.10;;;;;;10408113;28;20041;-58
2021/05/01 08:38:12;;;;;;;24.13;14.75;;;13.00;89.30;;;;;;10414072;28;20069;-59
2021/05/01 08:43:13;;;;;;;24.17;15.02;;;13.00;86.00;;;;;;10409474;28;20053;-59
2021/05/01 08:48:15;;;;;;;32.78;17.30;;;13.10;89.40;;;;;;10409220;28;20064;-58
2021/05/01 08:53:16;;;;;;;23.60;15.20;;;12.80;88.90;;;;;;10408510;28;20041;-58
2021/05/01 08:58:18;;;;;;;28.42;16.73;;;13.10;88.60;;;;;;10426429;28;20064;-58
2021/05/01 09:03:23;;;;;;;27.23;15.70;;;13.30;87.80;;;;;;10408423;28;20055;-58
2021/05/01 09:08:26;;;;;;;26.23;15.70;;;12.90;87.50;;;;;;10408834;28;20056;-59
2021/05/01 09:13:28;;;;;;;23.13;14.32;;;12.60;89.70;;;;;;10404594;28;20049;-58
2021/05/01 09:18:58;;;;;;;20.05;13.30;;;13.10;86.10;;;;;;10402981;28;20053;-58
2021/05/01 09:23:59;;;;;;;22.80;14.65;;;13.40;83.00;;;;;;10360935;28;20045;-59
2021/05/01 09:29:01;;;;;;;25.75;15.13;;;13.40;84.20;;;;;;10409106;28;20074;-58
2021/05/01 09:34:03;;;;;;;25.33;14.52;;;13.60;83.90;;;;;;10406603;28;20049;-58
2021/05/01 09:39:05;;;;;;;21.70;13.95;;;13.80;83.90;;;;;;10403775;28;20087;-60
2021/05/01 09:44:09;;;;;;;22.67;14.45;;;13.40;83.60;;;;;;10411633;28;20569;-59
2021/05/01 09:49:23;;;;;;;26.08;15.07;;;13.80;83.70;;;;;;10404060;28;20049;-58
2021/05/01 09:54:31;;;;;;;24.85;14.57;;;14.10;82.00;;;;;;10408407;28;20053;-58
2021/05/01 09:59:39;;;;;;;23.15;14.32;;;14.20;82.60;;;;;;10407666;28;20049;-59
2021/05/01 10:04:57;;;;;;;22.45;13.95;;;14.50;81.40;;;;;;10405543;28;20053;-58
2021/05/01 10:09:58;;;;;;;24.50;14.57;;;14.50;80.60;;;;;;10406576;28;20084;-59
2021/05/01 10:15:03;;;;;;;24.50;14.88;;;14.80;78.30;;;;;;10412666;28;20396;-58
2021/05/01 10:20:07;;;;;;;21.27;13.50;;;14.60;79.30;;;;;;10412875;28;20111;-58
2021/05/01 10:25:17;;;;;;;20.63;13.55;;;15.10;75.90;;;;;;10409520;28;20056;-60
2021/05/01 10:30:33;;;;;;;21.55;13.00;;;15.30;72.80;;;;;;10414248;28;20053;-58
2021/05/01 10:35:36;;;;;;;22.85;13.27;;;15.10;75.50;;;;;;10413391;28;20658;-59
2021/05/01 10:40:46;;;;;;;18.77;11.32;;;15.60;74.60;;;;;;10411185;28;20049;-58
2021/05/01 10:46:05;;;;;;;23.33;13.48;;;15.80;69.00;;;;;;10411012;28;20055;-59
2021/05/01 10:51:09;;;;;;;19.20;11.68;;;14.90;71.20;;;;;;10418017;28;20081;-60
2021/05/01 10:56:12;;;;;;;15.45;10.95;;;15.00;70.40;;;;;;10410494;28;20038;-59
2021/05/01 11:01:33;;;;;;;16.48;10.48;;;14.90;67.20;;;;;;10408037;28;20538;-59
2021/05/01 11:06:48;;;;;;;14.68;9.35;;;14.90;69.30;;;;;;10412436;28;20047;-59
2021/05/01 11:11:54;;;;;;;16.75;9.65;;;13.60;68.50;;;;;;10326953;28;20056;-59
2021/05/01 11:17:16;;;;;;;16.10;10.27;;;14.00;73.10;;;;;;10413803;28;20081;-59
2021/05/01 11:22:21;;;;;;;23.85;13.27;;;14.30;74.00;;;;;;10416348;28;20279;-61
2021/05/01 11:27:24;;;;;;;25.15;14.20;;;14.20;76.40;;;;;;10414439;28;20051;-60
2021/05/01 11:32:28;;;;;;;28.48;15.25;;;14.00;76.00;;;;;;10409294;28;20041;-59
2021/05/01 11:37:36;;;;;;;21.58;12.57;;;13.60;77.10;;;;;;10406499;28;20112;-59
2021/05/01 11:42:38;;;;;;;22.88;13.90;;;13.70;78.00;;;;;;10415202;28;20116;-60
2021/05/01 11:47:45;;;;;;;24.48;12.95;;;13.60;77.20;;;;;;10407643;28;20053;-59
2021/05/01 11:53:22;;;;;;;18.50;11.52;;;13.70;75.40;;;;;;10406374;28;20049;-60
2021/05/01 11:58:31;;;;;;;20.30;12.25;;;13.60;75.60;;;;;;10342055;28;20514;-59
2021/05/01 12:03:32;;;;;;;20.67;11.65;;;13.40;76.70;;;;;;10410745;28;20061;-59
2021/05/01 12:08:36;;;;;;;25.45;12.82;;;13.60;76.40;;;;;;10412756;28;20056;-59
2021/05/01 12:13:43;;;;;;;21.13;13.13;;;13.70;75.80;;;;;;10407840;28;20041;-60
2021/05/01 12:18:47;;;;;;;23.65;13.10;;;13.40;77.50;;;;;;10409411;28;20049;-59
2021/05/01 12:23:50;;;;;;;24.20;13.38;;;13.80;77.00;;;;;;10410565;28;20060;-59
2021/05/01 12:28:51;;;;;;;20.77;11.85;;;13.90;76.20;;;;;;10416713;28;20049;-58
2021/05/01 12:33:53;;;;;;;21.63;12.45;;;14.00;74.50;;;;;;10409902;28;20097;-58
2021/05/01 12:38:56;;;;;;;19.20;11.25;;;14.00;74.00;;;;;;10407324;28;20045;-58
2021/05/01 12:44:31;;;;;;;19.35;11.05;;;14.40;71.90;;;;;;10409311;28;20045;-58
2021/05/01 12:49:34;;;;;;;20.45;12.10;;;14.80;70.00;;;;;;10406721;28;20055;-60
2021/05/01 12:54:41;;;;;;;20.60;11.77;;;15.00;69.60;;;;;;10407985;28;20114;-60
2021/05/01 12:59:44;;;;;;;;;;;15.20;68.80;;;;;;10407147;28;20055;-60
2021/05/01 13:05:12;;;;;;;19.40;12.30;;;15.30;67.40;;;;;;10414365;28;19928;-60
2021/05/01 13:10:15;;;;;;;18.67;12.90;;;15.70;67.20;;;;;;10404218;28;20045;-60
2021/05/01 13:15:16;;;;;;;19.77;11.95;;;15.60;65.50;;;;;;10406581;28;20074;-60
2021/05/01 13:20:19;;;;;;;20.05;12.68;;;15.90;66.80;;;;;;10404805;28;20049;-60
2021/05/01 13:25:24;;;;;;;18.75;12.93;;;15.80;66.20;;;;;;10404285;28;20053;-60
2021/05/01 13:30:32;;;;;;;19.05;11.73;;;15.90;66.10;;;;;;10407167;28;20060;-60
2021/05/01 13:35:35;;;;;;;18.95;11.75;;;16.00;67.20;;;;;;10402652;28;20103;-60
2021/05/01 13:40:43;;;;;;;18.20;12.85;;;16.40;65.40;;;;;;10404166;28;20041;-60
2021/05/01 13:45:46;;;;;;;17.30;11.63;;;16.70;65.10;;;;;;10407772;28;20107;-60
2021/05/01 13:50:49;;;;;;;22.05;11.98;;;16.60;63.60;;;;;;10406478;28;20060;-61
2021/05/01 13:55:50;;;;;;;18.10;12.27;;;16.90;62.50;;;;;;10407113;28;20063;-61
2021/05/01 14:00:56;;;;;;;21.48;11.48;;;16.50;61.50;;;;;;10410531;28;20072;-61
2021/05/01 14:05:59;;;;;;;16.60;11.10;;;16.70;60.90;;;;;;10403099;28;20443;-59
2021/05/01 14:11:02;;;;;;;19.85;12.45;;;16.90;60.90;;;;;;10417781;28;20064;-60
2021/05/01 14:16:14;;;;;;;14.43;11.02;;;17.10;61.20;;;;;;10410860;28;20057;-60
2021/05/01 14:21:15;;;;;;;18.10;11.82;;;17.70;59.40;;;;;;10401984;28;20075;-60
2021/05/01 14:26:17;;;;;;;19.42;12.15;;;18.00;58.70;;;;;;10401120;28;20053;-59
2021/05/01 14:31:22;;;;;;;16.90;11.98;;;17.50;57.50;;;;;;10401960;28;20107;-61
2021/05/01 14:36:24;;;;;;;18.90;12.47;;;17.60;57.10;;;;;;10401531;28;20050;-60
2021/05/01 14:41:27;;;;;;;19.15;11.65;;;17.40;57.50;;;;;;10403767;28;20080;-60
2021/05/01 14:46:28;;;;;;;17.63;11.55;;;17.40;58.80;;;;;;10402510;28;20105;-60
2021/05/01 14:51:33;;;;;;;19.15;10.63;;;17.70;57.60;;;;;;10405174;28;20056;-61
2021/05/01 14:56:35;;;;;;;22.13;12.70;;;17.90;56.10;;;;;;10405227;28;20197;-61
2021/05/01 15:01:36;;;;;;;21.35;11.40;;;17.30;57.10;;;;;;10408509;28;20046;-60
2021/05/01 15:06:41;;;;;;;20.60;12.32;;;17.30;58.30;;;;;;10412822;28;20057;-61
2021/05/01 15:11:46;;;;;;;16.42;11.45;;;16.80;57.50;;;;;;10410560;28;20053;-61
2021/05/01 15:16:57;;;;;;;19.00;10.90;;;16.30;57.10;;;;;;10401353;28;20530;-61
2021/05/01 15:22:00;;;;;;;19.58;11.05;;;16.20;56.90;;;;;;10418104;28;20053;-60
2021/05/01 15:27:05;;;;;;;18.60;11.73;;;16.40;56.60;;;;;;10413761;28;20108;-60
2021/05/01 15:32:07;;;;;;;19.55;11.73;;;16.30;58.80;;;;;;10410838;28;20041;-61
2021/05/01 15:37:09;;;;;;;18.77;11.13;;;16.40;60.20;;;;;;10413827;28;20440;-60
2021/05/01 15:42:12;;;;;;;16.75;11.35;;;16.50;59.30;;;;;;10411813;28;20132;-61
2021/05/01 15:47:14;;;;;;;14.95;10.38;;;16.60;59.00;;;;;;10413581;28;20077;-64
2021/05/01 15:52:16;;;;;;;17.55;10.80;;;16.50;59.50;;;;;;10421556;28;20049;-63
2021/05/01 15:57:28;;;;;;;16.52;10.52;;;16.60;59.50;;;;;;10421083;28;20784;-62
2021/05/01 16:02:30;;;;;;;19.27;11.00;;;16.50;59.70;;;;;;10416085;28;20124;-62
2021/05/01 16:07:32;;;;;;;14.40;10.00;;;16.30;59.20;;;;;;10412250;28;20298;-62
2021/05/01 16:12:34;;;;;;;14.30;9.40;;;16.40;59.00;;;;;;10407520;28;20051;-60
2021/05/01 16:17:35;;;;;;;12.63;9.05;;;16.30;59.50;;;;;;10414109;28;20053;-60
2021/05/01 16:22:38;;;;;;;14.32;8.32;;;16.30;61.70;;;;;;10412445;28;20046;-60
2021/05/01 16:27:40;;;;;;;12.55;8.45;;;16.40;60.40;;;;;;10427415;28;20053;-60
2021/05/01 16:32:41;;;;;;;13.18;8.63;;;16.30;60.10;;;;;;10412511;28;20052;-60
2021/05/01 16:37:44;;;;;;;14.07;8.90;;;16.20;60.20;;;;;;10412133;28;20048;-59
2021/05/01 16:42:45;;;;;;;16.00;10.07;;;16.20;59.40;;;;;;10410792;28;20479;-59
2021/05/01 16:47:47;;;;;;;14.75;10.07;;;16.00;59.50;;;;;;10410207;28;20562;-60
2021/05/01 16:52:48;;;;;;;11.60;8.85;;;16.00;59.10;;;;;;10405026;28;20122;-59
2021/05/01 16:57:50;;;;;;;12.40;8.25;;;16.10;60.50;;;;;;10406393;28;20068;-60
2021/05/01 17:02:51;;;;;;;11.88;8.40;;;16.10;59.90;;;;;;10409254;28;20747;-59
2021/05/01 17:07:52;;;;;;;13.70;7.45;;;15.80;57.60;;;;;;10408198;28;20383;-60
2021/05/01 17:12:53;;;;;;;15.02;10.43;;;15.70;58.10;;;;;;10406860;28;20044;-61
2021/05/01 17:17:54;;;;;;;8.02;5.22;;;15.60;56.90;;;;;;10408073;28;20056;-60
2021/05/01 17:22:56;;;;;;;6.25;3.50;;;15.20;53.60;;;;;;10408955;28;20049;-60
2021/05/01 17:27:58;;;;;;;4.20;2.80;;;15.10;51.60;;;;;;10405663;28;20079;-60
2021/05/01 17:32:59;;;;;;;6.07;3.10;;;14.60;50.50;;;;;;10408558;28;20053;-60
2021/05/01 17:38:00;;;;;;;5.28;2.92;;;14.40;50.70;;;;;;10404172;28;20072;-61
2021/05/01 17:43:01;;;;;;;4.57;3.50;;;14.30;51.60;;;;;;10407469;28;20102;-61
2021/05/01 17:48:03;;;;;;;3.97;2.70;;;14.10;50.50;;;;;;10405012;28;20049;-61
2021/05/01 17:53:05;;;;;;;4.90;2.70;;;13.80;50.00;;;;;;10407799;28;20080;-60
2021/05/01 17:58:07;;;;;;;3.42;2.72;;;13.80;50.80;;;;;;10408680;28;20057;-60
2021/05/01 18:03:28;;;;;;;3.80;3.08;;;13.80;52.40;;;;;;10364213;28;20132;-60
2021/05/01 18:08:29;;;;;;;2.95;2.10;;;13.70;51.40;;;;;;10410443;28;20112;-60
2021/05/01 18:13:30;;;;;;;4.53;2.58;;;13.60;51.30;;;;;;10405876;28;20574;-60
2021/05/01 18:18:32;;;;;;;13.25;8.63;;;13.60;52.10;;;;;;10411000;28;20048;-60
2021/05/01 18:23:33;;;;;;;3.45;2.60;;;13.50;52.30;;;;;;10404769;28;20049;-60
2021/05/01 18:28:35;;;;;;;4.95;3.50;;;13.40;52.70;;;;;;10406457;28;20052;-59
2021/05/01 18:33:36;;;;;;;2.83;1.83;;;13.30;53.30;;;;;;10403228;28;20049;-60
2021/05/01 18:38:37;;;;;;;7.03;3.60;;;13.20;54.00;;;;;;10411991;28;20040;-59
2021/05/01 18:43:39;;;;;;;4.80;2.78;;;13.10;54.50;;;;;;10414544;28;20057;-59
2021/05/01 18:48:41;;;;;;;4.85;3.10;;;13.00;54.10;;;;;;10413399;28;20052;-59
2021/05/01 18:53:42;;;;;;;6.78;3.85;;;12.90;55.10;;;;;;10414884;28;20057;-60
2021/05/01 18:58:44;;;;;;;5.07;3.17;;;12.80;54.60;;;;;;10415683;28;20056;-61
2021/05/01 19:03:45;;;;;;;5.78;3.80;;;12.70;54.80;;;;;;10417331;28;20530;-60
2021/05/01 19:08:47;;;;;;;8.02;2.38;;;12.60;53.90;;;;;;10415248;28;20103;-60
2021/05/01 19:13:58;;;;;;;4.22;2.95;;;12.50;54.10;;;;;;10415847;28;20139;-61
2021/05/01 19:19:00;;;;;;;3.83;3.13;;;12.40;54.30;;;;;;10410823;28;20080;-61
2021/05/01 19:24:01;;;;;;;3.58;2.80;;;12.30;55.00;;;;;;10408473;28;20095;-62
2021/05/01 19:29:03;;;;;;;4.35;3.03;;;12.20;55.20;;;;;;10407975;28;20049;-61
2021/05/01 19:34:05;;;;;;;8.82;4.07;;;12.20;55.80;;;;;;10403385;28;20594;-62
2021/05/01 19:39:07;;;;;;;6.10;3.97;;;12.10;56.30;;;;;;10405011;28;20107;-61
2021/05/01 19:44:11;;;;;;;6.47;3.10;;;12.00;55.80;;;;;;10412429;28;20060;-60
2021/05/01 19:49:12;;;;;;;6.38;3.25;;;12.00;56.50;;;;;;10409245;28;20095;-61
2021/05/01 19:54:14;;;;;;;4.97;3.47;;;11.90;56.70;;;;;;10406995;28;20044;-61
2021/05/01 19:59:15;;;;;;;4.82;4.18;;;11.90;56.70;;;;;;10409255;28;20060;-60
2021/05/01 20:04:19;;;;;;;5.85;3.08;;;11.80;57.30;;;;;;10412468;28;20064;-61
2021/05/01 20:09:20;;;;;;;6.40;3.65;;;11.70;57.00;;;;;;10412205;28;20045;-62
2021/05/01 20:14:22;;;;;;;10.18;4.85;;;11.70;56.90;;;;;;10408933;28;20052;-61
2021/05/01 20:19:23;;;;;;;10.10;5.30;;;11.70;56.60;;;;;;10407947;28;20484;-60
2021/05/01 20:24:24;;;;;;;5.68;4.45;;;11.60;57.40;;;;;;10414374;28;20100;-59
2021/05/01 20:29:25;;;;;;;9.98;3.55;;;11.60;57.50;;;;;;10410026;28;20119;-61
2021/05/01 20:34:26;;;;;;;6.30;4.13;;;11.50;57.60;;;;;;10408854;28;20110;-62
2021/05/01 20:39:28;;;;;;;5.78;3.85;;;11.50;57.80;;;;;;10410799;28;20056;-61
2021/05/01 20:44:29;;;;;;;3.90;3.47;;;11.50;58.50;;;;;;10409483;28;20381;-60
2021/05/01 20:49:31;;;;;;;5.82;3.42;;;11.40;59.30;;;;;;10406521;28;20045;-60
2021/05/01 20:54:32;;;;;;;3.95;3.10;;;11.40;60.60;;;;;;10405812;28;20111;-60
2021/05/01 20:59:33;;;;;;;5.47;3.17;;;11.20;60.30;;;;;;10408471;28;20183;-60
2021/05/01 21:04:35;;;;;;;6.38;3.20;;;11.20;60.60;;;;;;10406593;28;20049;-60
2021/05/01 21:09:36;;;;;;;7.60;3.85;;;11.10;60.50;;;;;;10407675;28;20381;-60
2021/05/01 21:14:38;;;;;;;7.55;3.45;;;11.10;61.50;;;;;;10402755;28;20052;-59
2021/05/01 21:19:39;;;;;;;6.75;4.22;;;11.00;62.50;;;;;;10408821;28;20052;-60
2021/05/01 21:24:40;;;;;;;6.68;4.55;;;10.90;63.40;;;;;;10408713;28;20053;-60
2021/05/01 21:29:41;;;;;;;7.88;4.50;;;10.90;64.70;;;;;;10403319;28;20542;-60
2021/05/01 21:34:43;;;;;;;7.65;4.28;;;10.90;64.70;;;;;;10400565;28;20053;-63
2021/05/01 21:39:44;;;;;;;9.27;5.32;;;10.90;64.90;;;;;;10406632;28;20044;-60
2021/05/01 21:44:48;;;;;;;10.73;5.63;;;10.90;65.90;;;;;;10403636;28;20053;-60
2021/05/01 21:49:49;;;;;;;13.27;6.03;;;10.80;66.30;;;;;;10409546;28;20048;-61
2021/05/01 21:54:51;;;;;;;12.23;7.50;;;10.90;67.50;;;;;;10403599;28;20442;-61
2021/05/01 21:59:52;;;;;;;12.15;7.90;;;10.80;68.50;;;;;;10402952;28;20057;-61
2021/05/01 22:04:53;;;;;;;12.63;7.75;;;10.80;67.80;;;;;;10405267;28;20056;-61
2021/05/01 22:09:55;;;;;;;11.75;7.50;;;10.90;67.30;;;;;;10400719;28;20045;-60
2021/05/01 22:14:56;;;;;;;12.48;6.60;;;10.90;67.30;;;;;;10406920;28;20053;-61
2021/05/01 22:19:58;;;;;;;14.98;7.88;;;10.90;67.80;;;;;;10401909;28;20081;-61
2021/05/01 22:25:05;;;;;;;10.77;7.10;;;10.90;67.10;;;;;;10403584;28;20049;-61
2021/05/01 22:30:08;;;;;;;13.80;7.63;;;10.90;67.20;;;;;;10404968;28;20526;-63
2021/05/01 22:35:10;;;;;;;13.30;7.60;;;10.90;68.00;;;;;;10412599;28;20685;-61
2021/05/01 22:40:12;;;;;;;9.75;6.80;;;10.80;68.90;;;;;;10404279;28;20049;-61
2021/05/01 22:45:16;;;;;;;13.32;7.07;;;10.80;68.90;;;;;;10404293;28;20103;-61
2021/05/01 22:50:17;;;;;;;9.18;6.75;;;10.80;69.20;;;;;;10399655;28;20421;-61
2021/05/01 22:55:19;;;;;;;9.50;6.60;;;10.70;69.20;;;;;;10398871;28;20519;-61
2021/05/01 23:00:21;;;;;;;9.30;6.10;;;10.70;69.30;;;;;;10403716;28;20115;-61
2021/05/01 23:05:22;;;;;;;8.45;6.07;;;10.70;69.00;;;;;;10400841;28;20046;-61
2021/05/01 23:10:23;;;;;;;8.95;5.72;;;10.60;68.40;;;;;;10407427;28;20061;-61
2021/05/01 23:15:25;;;;;;;9.02;6.13;;;10.60;68.30;;;;;;10408076;28;20064;-61
2021/05/01 23:20:28;;;;;;;9.93;6.30;;;10.70;68.60;;;;;;10404758;28;20053;-61
2021/05/01 23:25:31;;;;;;;7.65;5.35;;;10.70;68.60;;;;;;10409152;28;20053;-61
2021/05/01 23:30:34;;;;;;;8.68;4.88;;;10.60;68.60;;;;;;10415156;28;20057;-59
2021/05/01 23:35:35;;;;;;;7.45;4.70;;;10.60;68.30;;;;;;10405649;28;20629;-60
2021/05/01 23:40:38;;;;;;;9.02;4.90;;;10.50;69.00;;;;;;10421945;28;20041;-60
2021/05/01 23:45:39;;;;;;;7.20;4.95;;;10.50;69.00;;;;;;10411204;28;20052;-60
2021/05/01 23:50:43;;;;;;;9.00;5.40;;;10.40;69.30;;;;;;10414290;28;20053;-60
2021/05/01 23:55:44;;;;;;;8.48;5.00;;;10.40;68.70;;;;;;10409709;28;20108;-59
